createdAt,value
2018-05-21T00:02:07.771Z,16.50
2018-05-21T00:04:35.271Z,16.40
2018-05-21T00:07:02.732Z,16.40
2018-05-21T00:09:31.005Z,16.40
2018-05-21T00:11:58.562Z,16.30
2018-05-21T00:14:26.032Z,16.40
2018-05-21T00:16:54.266Z,16.20
2018-05-21T00:19:21.748Z,16.20
2018-05-21T00:21:49.303Z,16.20
2018-05-21T00:24:16.779Z,16.20
2018-05-21T00:26:45.136Z,16.10
2018-05-21T00:29:12.611Z,16.00
2018-05-21T00:31:40.846Z,16.00
2018-05-21T00:34:08.323Z,15.90
2018-05-21T00:36:35.796Z,16.00
2018-05-21T00:39:04.020Z,15.80
2018-05-21T00:41:31.519Z,15.80
2018-05-21T00:43:58.979Z,15.80
2018-05-21T00:46:27.225Z,15.70
2018-05-21T00:48:54.710Z,15.60
2018-05-21T00:51:22.950Z,15.60
2018-05-21T00:53:50.423Z,15.50
2018-05-21T00:56:17.946Z,15.50
2018-05-21T00:58:45.454Z,15.60
2018-05-21T01:01:12.921Z,15.50
2018-05-21T01:03:41.185Z,15.30
2018-05-21T01:06:08.746Z,15.20
2018-05-21T01:08:36.302Z,15.30
2018-05-21T01:11:03.767Z,15.30
2018-05-21T01:13:32.022Z,15.20
2018-05-21T01:15:59.470Z,15.20
2018-05-21T01:18:26.951Z,15.20
2018-05-21T01:20:55.275Z,15.00
2018-05-21T01:23:22.735Z,15.00
2018-05-21T01:25:50.207Z,15.10
2018-05-21T01:28:17.669Z,15.00
2018-05-21T01:30:45.130Z,15.00
2018-05-21T01:33:12.605Z,14.90
2018-05-21T01:35:40.070Z,15.00
2018-05-21T01:38:08.338Z,15.00
2018-05-21T01:40:35.898Z,14.90
2018-05-21T01:43:03.613Z,14.90
2018-05-21T01:45:31.076Z,14.80
2018-05-21T01:47:58.539Z,14.80
2018-05-21T01:50:25.999Z,14.70
2018-05-21T01:52:53.470Z,14.70
2018-05-21T01:55:21.050Z,14.80
2018-05-21T01:57:48.592Z,14.80
2018-05-21T02:00:16.151Z,14.80
2018-05-21T02:02:43.633Z,14.80
2018-05-21T02:05:11.855Z,14.80
2018-05-21T02:07:39.406Z,14.80
2018-05-21T02:10:06.880Z,14.80
2018-05-21T02:12:34.351Z,14.80
2018-05-21T02:15:01.816Z,14.80
2018-05-21T02:17:30.818Z,14.80
2018-05-21T02:19:58.336Z,14.70
2018-05-21T02:22:25.839Z,14.80
2018-05-21T02:24:53.300Z,14.70
2018-05-21T02:27:21.538Z,14.70
2018-05-21T02:29:49.004Z,14.70
2018-05-21T02:32:16.472Z,14.70
2018-05-21T02:34:44.041Z,14.70
2018-05-21T02:37:12.286Z,14.60
2018-05-21T02:39:39.771Z,14.50
2018-05-21T02:42:07.236Z,14.60
2018-05-21T02:44:35.483Z,14.50
2018-05-21T02:47:02.941Z,14.40
2018-05-21T02:49:30.502Z,14.40
2018-05-21T02:51:58.062Z,14.50
2018-05-21T02:54:25.622Z,14.40
2018-05-21T02:56:53.074Z,14.50
2018-05-21T02:59:20.534Z,14.40
2018-05-21T03:01:48.094Z,14.40
2018-05-21T03:04:15.574Z,14.40
2018-05-21T03:06:43.811Z,14.50
2018-05-21T03:09:11.283Z,14.40
2018-05-21T03:11:38.745Z,14.50
2018-05-21T03:14:06.218Z,14.50
2018-05-21T03:16:34.476Z,14.60
2018-05-21T03:19:02.048Z,14.50
2018-05-21T03:21:30.278Z,14.60
2018-05-21T03:23:57.738Z,14.60
2018-05-21T03:26:25.224Z,14.60
2018-05-21T03:28:52.698Z,14.60
2018-05-21T03:31:20.924Z,14.50
2018-05-21T03:33:48.383Z,14.50
2018-05-21T03:36:15.854Z,14.50
2018-05-21T03:38:43.311Z,14.50
2018-05-21T03:41:10.797Z,14.50
2018-05-21T03:43:38.258Z,14.50
2018-05-21T03:46:06.499Z,14.30
2018-05-21T03:48:33.989Z,14.30
2018-05-21T03:51:02.228Z,14.40
2018-05-21T03:53:29.694Z,14.40
2018-05-21T03:55:57.158Z,14.50
2018-05-21T04:01:35.934Z,14.60
2018-05-21T04:04:03.454Z,14.60
2018-05-21T04:06:30.915Z,14.60
2018-05-21T04:08:58.475Z,14.70
2018-05-21T04:11:26.009Z,14.70
2018-05-21T04:13:53.487Z,14.70
2018-05-21T04:16:21.046Z,14.70
2018-05-21T04:18:48.517Z,14.80
2018-05-21T04:21:16.058Z,14.80
2018-05-21T04:23:43.521Z,14.80
2018-05-21T04:26:10.978Z,14.90
2018-05-21T04:28:38.532Z,15.00
2018-05-21T04:31:06.758Z,15.00
2018-05-21T04:33:34.241Z,15.00
2018-05-21T04:36:01.699Z,15.10
2018-05-21T04:38:29.177Z,15.10
2018-05-21T04:40:56.649Z,15.20
2018-05-21T04:43:24.115Z,15.30
2018-05-21T04:45:52.351Z,15.40
2018-05-21T04:48:19.820Z,15.40
2018-05-21T04:50:47.301Z,15.50
2018-05-21T04:53:15.556Z,15.60
2018-05-21T04:55:43.015Z,15.50
2018-05-21T04:58:12.010Z,15.60
2018-05-21T05:00:39.584Z,15.60
2018-05-21T05:03:07.827Z,15.70
2018-05-21T05:05:35.285Z,15.70
2018-05-21T05:08:02.755Z,15.80
2018-05-21T05:10:30.319Z,15.90
2018-05-21T05:12:57.812Z,15.90
2018-05-21T05:15:25.285Z,16.00
2018-05-21T05:17:52.756Z,16.10
2018-05-21T05:20:20.247Z,16.20
2018-05-21T05:22:47.800Z,16.20
2018-05-21T05:25:15.262Z,16.30
2018-05-21T05:27:42.818Z,16.40
2018-05-21T05:30:10.290Z,16.40
2018-05-21T05:32:37.834Z,16.50
2018-05-21T05:35:05.331Z,16.60
2018-05-21T05:37:32.854Z,16.70
2018-05-21T05:40:01.096Z,16.80
2018-05-21T05:42:28.570Z,16.80
2018-05-21T05:44:57.584Z,17.00
2018-05-21T05:47:25.147Z,17.00
2018-05-21T05:49:53.396Z,17.20
2018-05-21T05:52:20.962Z,17.20
2018-05-21T05:54:48.418Z,17.30
2018-05-21T05:57:15.905Z,17.30
2018-05-21T05:59:44.128Z,17.30
2018-05-21T06:02:11.581Z,17.20
2018-05-21T06:04:39.059Z,17.30
2018-05-21T06:07:06.510Z,17.40
2018-05-21T06:09:34.080Z,17.50
2018-05-21T06:12:01.544Z,17.50
2018-05-21T06:14:29.096Z,17.60
2018-05-21T06:16:56.682Z,17.70
2018-05-21T06:19:24.930Z,17.90
2018-05-21T06:21:52.382Z,17.80
2018-05-21T06:24:19.946Z,18.00
2018-05-21T06:26:47.399Z,18.10
2018-05-21T06:29:14.959Z,18.10
2018-05-21T06:31:42.421Z,18.20
2018-05-21T06:34:09.982Z,18.30
2018-05-21T06:36:37.334Z,18.40
2018-05-21T06:39:04.844Z,18.40
2018-05-21T06:41:32.616Z,18.60
2018-05-21T06:44:00.219Z,18.60
2018-05-21T06:46:27.678Z,18.80
2018-05-21T06:48:55.225Z,18.80
2018-05-21T06:51:22.819Z,18.90
2018-05-21T06:53:51.047Z,19.10
2018-05-21T06:56:18.514Z,19.10
2018-05-21T06:58:46.787Z,19.30
2018-05-21T07:01:14.240Z,19.30
2018-05-21T07:03:41.694Z,19.50
2018-05-21T07:06:09.146Z,19.60
2018-05-21T07:08:36.638Z,19.60
2018-05-21T07:11:04.894Z,19.70
2018-05-21T07:13:33.886Z,19.80
2018-05-21T07:16:01.351Z,19.80
2018-05-21T07:18:28.810Z,19.80
2018-05-21T07:20:56.274Z,19.80
2018-05-21T07:23:24.511Z,20.10
2018-05-21T07:25:51.979Z,20.10
2018-05-21T07:28:19.554Z,20.20
2018-05-21T07:30:47.824Z,20.30
2018-05-21T07:33:15.281Z,20.20
2018-05-21T07:35:43.106Z,20.40
2018-05-21T07:38:10.559Z,20.50
2018-05-21T07:40:38.067Z,20.50
2018-05-21T07:43:05.623Z,20.60
2018-05-21T07:45:33.099Z,20.60
2018-05-21T07:48:01.328Z,20.70
2018-05-21T07:50:28.789Z,20.60
2018-05-21T07:52:56.242Z,20.70
2018-05-21T07:55:23.710Z,20.70
2018-05-21T07:57:51.169Z,20.90
2018-05-21T08:00:18.634Z,20.90
2018-05-21T08:02:46.186Z,21.00
2018-05-21T08:05:13.653Z,21.10
2018-05-21T08:07:41.114Z,21.20
2018-05-21T08:10:08.576Z,21.30
2018-05-21T08:12:36.118Z,21.40
2018-05-21T08:15:03.578Z,21.40
2018-05-21T08:17:31.094Z,21.40
2018-05-21T08:19:58.603Z,21.50
2018-05-21T08:22:26.162Z,21.50
2018-05-21T08:24:55.158Z,21.50
2018-05-21T08:27:21.863Z,21.60
2018-05-21T08:29:49.326Z,21.50
2018-05-21T08:32:16.788Z,21.60
2018-05-21T08:34:44.265Z,21.70
2018-05-21T08:37:11.807Z,21.70
2018-05-21T08:39:39.267Z,21.80
2018-05-21T08:42:06.726Z,21.80
2018-05-21T08:44:34.274Z,21.80
2018-05-21T08:47:01.771Z,21.90
2018-05-21T08:49:29.991Z,21.90
2018-05-21T08:51:57.458Z,21.90
2018-05-21T08:54:24.991Z,22.00
2018-05-21T08:56:52.447Z,22.10
2018-05-21T08:59:19.926Z,22.30
2018-05-21T09:01:47.394Z,22.40
2018-05-21T09:04:14.956Z,22.50
2018-05-21T09:06:42.518Z,22.60
2018-05-21T09:09:09.976Z,22.50
2018-05-21T09:11:38.954Z,22.40
2018-05-21T09:14:06.417Z,22.40
2018-05-21T09:16:33.908Z,22.60
2018-05-21T09:19:01.340Z,22.70
2018-05-21T09:21:29.570Z,22.70
2018-05-21T09:23:57.030Z,22.70
2018-05-21T09:26:24.526Z,22.80
2018-05-21T09:28:52.144Z,22.80
2018-05-21T09:31:19.691Z,23.10
2018-05-21T09:33:47.256Z,23.10
2018-05-21T09:36:14.755Z,23.20
2018-05-21T09:38:42.235Z,23.40
2018-05-21T09:41:09.772Z,23.30
2018-05-21T09:43:37.235Z,23.30
2018-05-21T09:46:04.790Z,23.30
2018-05-21T09:48:32.342Z,23.40
2018-05-21T09:50:59.809Z,23.50
2018-05-21T09:53:27.307Z,23.50
2018-05-21T09:55:54.780Z,23.50
2018-05-21T09:58:22.282Z,23.30
2018-05-21T10:00:55.635Z,23.30
2018-05-21T10:03:23.095Z,23.30
2018-05-21T10:05:50.590Z,23.50
2018-05-21T10:08:18.048Z,23.60
2018-05-21T10:10:47.022Z,23.70
2018-05-21T10:13:14.482Z,23.70
2018-05-21T10:15:42.009Z,23.80
2018-05-21T10:18:09.503Z,24.10
2018-05-21T10:20:36.960Z,24.20
2018-05-21T10:23:04.418Z,24.30
2018-05-21T10:25:31.874Z,24.40
2018-05-21T10:27:59.439Z,24.50
2018-05-21T10:30:26.991Z,24.50
2018-05-21T10:32:54.552Z,24.50
2018-05-21T10:35:22.054Z,24.70
2018-05-21T10:37:49.562Z,24.80
2018-05-21T10:40:17.019Z,24.80
2018-05-21T10:42:44.480Z,24.80
2018-05-21T10:45:11.930Z,25.00
2018-05-21T10:47:39.383Z,25.20
2018-05-21T10:50:06.950Z,25.40
2018-05-21T10:52:34.409Z,25.30
2018-05-21T10:55:01.964Z,25.40
2018-05-21T10:57:29.506Z,25.40
2018-05-21T10:59:57.699Z,25.20
2018-05-21T11:02:25.259Z,25.10
2018-05-21T11:04:52.819Z,24.80
2018-05-21T11:07:20.379Z,24.90
2018-05-21T11:09:48.654Z,25.00
2018-05-21T11:12:16.194Z,25.30
2018-05-21T11:14:43.639Z,25.70
2018-05-21T11:17:11.112Z,25.90
2018-05-21T11:19:38.579Z,26.00
2018-05-21T11:22:06.141Z,25.90
2018-05-21T11:24:33.720Z,25.70
2018-05-21T11:27:01.159Z,25.50
2018-05-21T11:29:28.619Z,25.60
2018-05-21T11:31:56.152Z,26.00
2018-05-21T11:34:24.343Z,25.90
2018-05-21T11:36:51.795Z,25.90
2018-05-21T11:39:20.098Z,26.30
2018-05-21T11:41:48.354Z,26.70
2018-05-21T11:44:15.814Z,26.60
2018-05-21T11:46:43.280Z,27.10
2018-05-21T11:49:10.777Z,27.10
2018-05-21T11:51:38.315Z,27.00
2018-05-21T11:54:06.548Z,26.80
2018-05-21T11:56:34.119Z,26.70
2018-05-21T11:59:01.680Z,26.60
2018-05-21T12:01:29.230Z,26.30
2018-05-21T12:03:56.702Z,26.40
2018-05-21T12:06:24.155Z,26.70
2018-05-21T12:08:51.711Z,27.00
2018-05-21T12:11:19.168Z,27.10
2018-05-21T12:13:46.728Z,27.20
2018-05-21T12:16:14.187Z,27.20
2018-05-21T12:18:41.742Z,27.20
2018-05-21T12:21:09.210Z,27.10
2018-05-21T12:23:37.470Z,27.50
2018-05-21T12:26:04.931Z,27.50
2018-05-21T12:28:32.482Z,27.70
2018-05-21T12:31:00.045Z,27.70
2018-05-21T12:33:27.499Z,27.50
2018-05-21T12:35:54.966Z,27.30
2018-05-21T12:38:22.519Z,27.30
2018-05-21T12:40:50.072Z,27.30
2018-05-21T12:43:17.532Z,27.30
2018-05-21T12:45:45.913Z,27.40
2018-05-21T12:48:13.379Z,27.60
2018-05-21T12:50:41.614Z,27.80
2018-05-21T12:53:09.101Z,27.70
2018-05-21T12:55:36.653Z,27.50
2018-05-21T12:58:04.215Z,27.50
2018-05-21T13:00:31.674Z,27.70
2018-05-21T13:02:59.230Z,28.20
2018-05-21T13:05:26.688Z,28.30
2018-05-21T13:07:54.246Z,28.50
2018-05-21T13:10:21.702Z,28.50
2018-05-21T13:12:49.290Z,28.80
2018-05-21T13:15:17.566Z,28.40
2018-05-21T13:17:45.000Z,28.40
2018-05-21T13:20:12.530Z,28.60
2018-05-21T13:22:39.995Z,28.90
2018-05-21T13:25:07.518Z,29.20
2018-05-21T13:27:34.975Z,29.20
2018-05-21T13:30:02.447Z,29.20
2018-05-21T13:32:29.908Z,28.90
2018-05-21T13:34:57.371Z,28.80
2018-05-21T13:37:24.839Z,28.80
2018-05-21T13:39:52.323Z,28.80
2018-05-21T13:42:20.562Z,29.20
2018-05-21T13:44:48.031Z,29.20
2018-05-21T13:47:15.611Z,29.50
2018-05-21T13:49:43.831Z,29.50
2018-05-21T13:52:11.406Z,29.50
2018-05-21T13:54:38.921Z,29.40
2018-05-21T13:57:07.175Z,29.40
2018-05-21T13:59:35.498Z,29.60
2018-05-21T14:02:02.996Z,29.60
2018-05-21T14:04:30.456Z,29.70
2018-05-21T14:06:57.922Z,29.80
2018-05-21T14:09:25.389Z,30.10
2018-05-21T14:11:52.851Z,30.10
2018-05-21T14:14:21.116Z,30.30
2018-05-21T14:16:49.355Z,30.20
2018-05-21T14:19:16.843Z,30.10
2018-05-21T14:21:44.389Z,30.10
2018-05-21T14:24:12.543Z,29.90
2018-05-21T14:26:40.003Z,29.90
2018-05-21T14:29:07.487Z,29.60
2018-05-21T14:31:35.039Z,29.10
2018-05-21T14:34:02.499Z,29.10
2018-05-21T14:36:29.956Z,29.40
2018-05-21T14:38:57.503Z,29.40
2018-05-21T14:41:24.954Z,29.30
2018-05-21T14:43:52.455Z,29.60
2018-05-21T14:46:20.680Z,29.80
2018-05-21T14:48:48.377Z,29.70
2018-05-21T14:51:15.827Z,29.70
2018-05-21T14:53:44.811Z,29.40
2018-05-21T14:56:12.274Z,29.40
2018-05-21T14:58:39.817Z,29.30
2018-05-21T15:01:07.275Z,29.50
2018-05-21T15:03:34.747Z,29.40
2018-05-21T15:06:02.970Z,29.20
2018-05-21T15:08:30.482Z,29.10
2018-05-21T15:10:58.726Z,29.60
2018-05-21T15:13:26.207Z,29.50
2018-05-21T15:15:53.750Z,29.70
2018-05-21T15:18:21.227Z,29.80
2018-05-21T15:20:49.447Z,29.80
2018-05-21T15:23:16.939Z,29.70
2018-05-21T15:25:44.603Z,29.90
2018-05-21T15:28:12.096Z,30.00
2018-05-21T15:30:39.620Z,30.20
2018-05-21T15:33:07.914Z,30.00
2018-05-21T15:35:36.138Z,29.70
2018-05-21T15:38:03.601Z,29.70
2018-05-21T15:40:31.067Z,29.60
2018-05-21T15:42:58.527Z,29.30
2018-05-21T15:45:26.000Z,29.00
2018-05-21T15:47:53.456Z,28.80
2018-05-21T15:50:20.910Z,28.80
2018-05-21T15:52:48.471Z,29.00
2018-05-21T15:55:15.931Z,29.10
2018-05-21T15:57:43.423Z,29.10
2018-05-21T16:00:10.855Z,29.10
2018-05-21T16:02:38.310Z,29.10
2018-05-21T16:05:05.871Z,28.90
2018-05-21T16:07:33.414Z,29.00
2018-05-21T16:10:01.341Z,29.00
2018-05-21T16:12:28.841Z,29.20
2018-05-21T16:14:56.301Z,29.50
2018-05-21T16:17:23.854Z,29.60
2018-05-21T16:19:51.330Z,29.40
2018-05-21T16:22:19.566Z,29.20
2018-05-21T16:24:47.047Z,29.10
2018-05-21T16:27:14.602Z,29.20
2018-05-21T16:29:42.059Z,29.20
2018-05-21T16:32:09.527Z,29.20
2018-05-21T16:34:38.514Z,29.00
2018-05-21T16:37:06.787Z,28.80
2018-05-21T16:39:34.348Z,28.70
2018-05-21T16:42:01.798Z,28.60
2018-05-21T16:44:29.284Z,28.40
2018-05-21T16:46:57.508Z,27.90
2018-05-21T16:49:25.091Z,27.80
2018-05-21T16:51:52.651Z,27.80
2018-05-21T16:54:20.171Z,27.80
2018-05-21T16:56:47.636Z,27.90
2018-05-21T16:59:15.118Z,27.70
2018-05-21T17:01:42.596Z,27.60
2018-05-21T17:04:10.043Z,27.50
2018-05-21T17:06:37.500Z,27.50
2018-05-21T17:09:04.968Z,27.50
2018-05-21T17:11:33.199Z,27.50
2018-05-21T17:14:00.685Z,27.40
2018-05-21T17:16:28.135Z,27.30
2018-05-21T17:18:55.653Z,27.20
2018-05-21T17:21:23.120Z,27.10
2018-05-21T17:23:50.596Z,27.10
2018-05-21T17:26:18.167Z,27.00
2018-05-21T17:28:45.737Z,27.10
2018-05-21T17:31:13.208Z,27.10
2018-05-21T17:33:41.431Z,27.00
2018-05-21T17:36:08.943Z,26.90
2018-05-21T17:38:37.259Z,26.70
2018-05-21T17:41:04.746Z,26.60
2018-05-21T17:43:32.230Z,26.40
2018-05-21T17:46:00.458Z,26.00
2018-05-21T17:48:27.939Z,26.00
2018-05-21T17:50:55.495Z,26.00
2018-05-21T17:53:23.051Z,26.10
2018-05-21T17:55:50.508Z,26.10
2018-05-21T17:58:17.971Z,26.00
2018-05-21T18:00:45.448Z,25.80
2018-05-21T18:03:13.758Z,25.30
2018-05-21T18:05:41.142Z,25.30
2018-05-21T18:08:08.719Z,25.20
2018-05-21T18:10:37.708Z,25.00
2018-05-21T18:13:05.167Z,25.00
2018-05-21T18:15:32.625Z,25.00
2018-05-21T18:18:00.857Z,24.70
2018-05-21T18:20:28.319Z,24.60
2018-05-21T18:22:55.807Z,24.60
2018-05-21T18:25:23.267Z,24.50
2018-05-21T18:27:50.736Z,24.40
2018-05-21T18:30:18.201Z,24.30
2018-05-21T18:32:46.424Z,24.20
2018-05-21T18:35:13.919Z,24.10
2018-05-21T18:37:41.389Z,24.10
2018-05-21T18:40:09.627Z,23.80
2018-05-21T18:42:37.183Z,23.80
2018-05-21T18:45:04.667Z,23.70
2018-05-21T18:47:32.147Z,23.70
2018-05-21T18:50:00.405Z,23.50
2018-05-21T18:52:27.876Z,23.50
2018-05-21T18:54:56.115Z,23.50
2018-05-21T18:57:23.719Z,23.40
2018-05-21T18:59:51.246Z,23.50
2018-05-21T19:02:19.552Z,23.30
2018-05-21T19:04:47.833Z,23.20
2018-05-21T19:07:16.068Z,23.20
2018-05-21T19:09:43.537Z,23.20
2018-05-21T19:12:11.005Z,23.10
2018-05-21T19:14:39.276Z,23.00
2018-05-21T19:17:06.815Z,22.90
2018-05-21T19:19:34.367Z,23.00
2018-05-21T19:22:01.930Z,22.90
2018-05-21T19:24:29.398Z,22.90
2018-05-21T19:26:56.942Z,22.80
2018-05-21T19:29:24.418Z,22.80
2018-05-21T19:31:51.964Z,22.70
2018-05-21T19:34:19.449Z,22.60
2018-05-21T19:36:47.690Z,22.40
2018-05-21T19:39:15.185Z,22.40
2018-05-21T19:41:43.406Z,22.30
2018-05-21T19:44:10.887Z,22.30
2018-05-21T19:46:38.515Z,22.30
2018-05-21T19:49:05.914Z,22.20
2018-05-21T19:51:33.478Z,22.10
2018-05-21T19:54:00.863Z,22.00
2018-05-21T19:56:28.375Z,22.00
2018-05-21T19:58:55.849Z,21.90
2018-05-21T20:01:23.311Z,21.90
2018-05-21T20:03:51.561Z,21.80
2018-05-21T20:06:19.114Z,21.80
2018-05-21T20:08:46.577Z,21.80
2018-05-21T20:11:14.201Z,21.80
2018-05-21T20:13:41.692Z,21.70
2018-05-21T20:16:09.164Z,21.60
2018-05-21T20:18:36.660Z,21.60
2018-05-21T20:21:04.110Z,21.50
2018-05-21T20:23:31.620Z,21.50
2018-05-21T20:25:59.155Z,21.50
2018-05-21T20:28:26.635Z,21.40
2018-05-21T20:30:54.094Z,21.40
2018-05-21T20:33:23.064Z,21.20
2018-05-21T20:35:50.534Z,21.20
2018-05-21T20:38:17.998Z,21.30
2018-05-21T20:40:45.473Z,21.30
2018-05-21T20:43:12.929Z,21.20
2018-05-21T20:45:40.394Z,21.10
2018-05-21T20:48:08.643Z,21.10
2018-05-21T20:50:36.099Z,21.00
2018-05-21T20:53:03.554Z,21.00
2018-05-21T20:55:31.115Z,21.00
2018-05-21T20:57:58.570Z,20.90
2018-05-21T21:00:26.130Z,20.90
2018-05-21T21:02:53.691Z,20.90
2018-05-21T21:05:21.147Z,20.80
2018-05-21T21:07:48.706Z,20.80
2018-05-21T21:10:16.268Z,20.70
2018-05-21T21:12:43.823Z,20.70
2018-05-21T21:15:11.383Z,20.70
2018-05-21T21:17:38.839Z,20.60
2018-05-21T21:20:06.295Z,20.60
2018-05-21T21:22:33.752Z,20.50
2018-05-21T21:25:01.312Z,20.50
2018-05-21T21:27:28.871Z,20.40
2018-05-21T21:29:57.839Z,20.20
2018-05-21T21:32:25.339Z,20.20
2018-05-21T21:34:52.889Z,20.30
2018-05-21T21:37:20.351Z,20.20
2018-05-21T21:39:48.710Z,20.20
2018-05-21T21:42:16.199Z,20.10
2018-05-21T21:44:44.423Z,20.10
2018-05-21T21:47:11.962Z,20.10
2018-05-21T21:49:39.406Z,20.10
2018-05-21T21:52:06.872Z,20.10
2018-05-21T21:54:34.340Z,20.00
2018-05-21T21:57:01.837Z,20.00
2018-05-21T21:59:29.391Z,20.00
2018-05-21T22:01:56.848Z,20.00
2018-05-21T22:04:24.407Z,19.90
2018-05-21T22:06:52.654Z,19.80
2018-05-21T22:09:20.146Z,19.80
2018-05-21T22:11:47.610Z,19.80
2018-05-21T22:14:15.871Z,19.70
2018-05-21T22:16:43.430Z,19.70
2018-05-21T22:19:11.002Z,19.70
2018-05-21T22:21:38.462Z,19.60
2018-05-21T22:24:06.722Z,19.60
2018-05-21T22:26:34.280Z,19.50
2018-05-21T22:29:01.738Z,19.50
2018-05-21T22:31:29.294Z,19.50
2018-05-21T22:33:56.756Z,19.40
2018-05-21T22:36:24.238Z,19.30
2018-05-21T22:38:52.487Z,19.30
2018-05-21T22:41:20.047Z,19.20
2018-05-21T22:43:47.594Z,19.20
2018-05-21T22:46:15.849Z,19.20
2018-05-21T22:48:43.396Z,19.20
2018-05-21T22:51:10.932Z,19.10
2018-05-21T22:53:38.343Z,19.10
2018-05-21T22:56:05.811Z,19.10
2018-05-21T22:58:33.419Z,19.10
2018-05-21T23:01:00.869Z,19.10
2018-05-21T23:03:28.325Z,19.00
2018-05-21T23:05:55.830Z,18.90
2018-05-21T23:08:23.402Z,19.00
2018-05-21T23:10:50.874Z,18.90
2018-05-21T23:13:19.135Z,18.90
2018-05-21T23:15:47.382Z,18.90
2018-05-21T23:18:14.851Z,18.80
2018-05-21T23:20:42.313Z,18.80
2018-05-21T23:23:11.286Z,18.70
2018-05-21T23:25:38.768Z,18.70
2018-05-21T23:28:06.331Z,18.70
2018-05-21T23:30:33.886Z,18.70
2018-05-21T23:33:01.435Z,18.60
2018-05-21T23:35:28.904Z,18.60
2018-05-21T23:37:56.367Z,18.60
2018-05-21T23:40:24.589Z,18.50
2018-05-21T23:42:52.092Z,18.40
2018-05-21T23:45:19.650Z,18.50
2018-05-21T23:47:47.111Z,18.40
2018-05-21T23:50:14.564Z,18.40
2018-05-21T23:52:42.126Z,18.40
2018-05-21T23:55:09.670Z,18.40
2018-05-21T23:57:38.645Z,18.30
